sensor_id;sensor_type;location;lat;lon;timestamp;P1;durP1;ratioP1;P2;durP2;ratioP2
3159;SDS011;1591;51.486;7.146;2022-10-13T00:00:39;22.40;;;10.20;;
3159;SDS011;1591;51.486;7.146;2022-10-13T00:03:07;13.80;;;10.00;;
3159;SDS011;1591;51.486;7.146;2022-10-13T00:05:38;14.60;;;9.37;;
3159;SDS011;1591;51.486;7.146;2022-10-13T00:08:07;20.57;;;10.70;;
3159;SDS011;1591;51.486;7.146;2022-10-13T00:10:36;19.07;;;11.03;;
3159;SDS011;1591;51.486;7.146;2022-10-13T00:13:04;15.03;;;9.00;;
3159;SDS011;1591;51.486;7.146;2022-10-13T00:15:35;21.10;;;10.53;;
3159;SDS011;1591;51.486;7.146;2022-10-13T00:18:03;20.67;;;10.00;;
3159;SDS011;1591;51.486;7.146;2022-10-13T00:20:30;17.60;;;9.50;;
3159;SDS011;1591;51.486;7.146;2022-10-13T00:22:57;16.60;;;10.33;;
3159;SDS011;1591;51.486;7.146;2022-10-13T00:25:24;13.73;;;9.37;;
3159;SDS011;1591;51.486;7.146;2022-10-13T00:27:52;13.93;;;10.30;;
3159;SDS011;1591;51.486;7.146;2022-10-13T00:30:19;16.63;;;9.80;;
3159;SDS011;1591;51.486;7.146;2022-10-13T00:32:46;22.67;;;9.83;;
3159;SDS011;1591;51.486;7.146;2022-10-13T00:35:13;22.77;;;9.67;;
3159;SDS011;1591;51.486;7.146;2022-10-13T00:37:40;18.47;;;9.80;;
3159;SDS011;1591;51.486;7.146;2022-10-13T00:40:07;14.73;;;10.20;;
3159;SDS011;1591;51.486;7.146;2022-10-13T00:42:35;20.03;;;10.07;;
3159;SDS011;1591;51.486;7.146;2022-10-13T00:45:10;16.60;;;9.67;;
3159;SDS011;1591;51.486;7.146;2022-10-13T00:47:48;14.67;;;9.40;;
3159;SDS011;1591;51.486;7.146;2022-10-13T00:50:22;14.97;;;9.93;;
3159;SDS011;1591;51.486;7.146;2022-10-13T00:52:54;13.30;;;9.70;;
3159;SDS011;1591;51.486;7.146;2022-10-13T00:55:23;13.97;;;9.83;;
3159;SDS011;1591;51.486;7.146;2022-10-13T00:57:55;16.50;;;9.70;;
3159;SDS011;1591;51.486;7.146;2022-10-13T01:00:27;16.77;;;9.53;;
3159;SDS011;1591;51.486;7.146;2022-10-13T01:02:55;15.47;;;9.67;;
3159;SDS011;1591;51.486;7.146;2022-10-13T01:05:22;20.20;;;10.80;;
3159;SDS011;1591;51.486;7.146;2022-10-13T01:07:51;15.50;;;9.97;;
3159;SDS011;1591;51.486;7.146;2022-10-13T01:10:20;14.27;;;9.97;;
3159;SDS011;1591;51.486;7.146;2022-10-13T01:13:00;14.03;;;9.30;;
3159;SDS011;1591;51.486;7.146;2022-10-13T01:15:39;17.43;;;9.57;;
3159;SDS011;1591;51.486;7.146;2022-10-13T01:18:12;15.23;;;9.40;;
3159;SDS011;1591;51.486;7.146;2022-10-13T01:20:49;18.60;;;10.20;;
3159;SDS011;1591;51.486;7.146;2022-10-13T01:27:11;14.40;;;9.37;;
3159;SDS011;1591;51.486;7.146;2022-10-13T01:30:10;20.43;;;9.00;;
3159;SDS011;1591;51.486;7.146;2022-10-13T01:35:48;17.07;;;9.70;;
3159;SDS011;1591;51.486;7.146;2022-10-13T01:38:34;16.17;;;8.83;;
3159;SDS011;1591;51.486;7.146;2022-10-13T01:41:09;16.30;;;9.20;;
3159;SDS011;1591;51.486;7.146;2022-10-13T01:43:44;18.13;;;10.10;;
3159;SDS011;1591;51.486;7.146;2022-10-13T01:46:17;14.67;;;9.80;;
3159;SDS011;1591;51.486;7.146;2022-10-13T01:48:48;12.73;;;9.57;;
3159;SDS011;1591;51.486;7.146;2022-10-13T01:51:19;17.97;;;10.13;;
3159;SDS011;1591;51.486;7.146;2022-10-13T01:53:50;12.63;;;9.73;;
3159;SDS011;1591;51.486;7.146;2022-10-13T01:56:17;12.70;;;9.00;;
3159;SDS011;1591;51.486;7.146;2022-10-13T01:58:44;15.40;;;9.70;;
3159;SDS011;1591;51.486;7.146;2022-10-13T02:01:15;13.73;;;9.17;;
3159;SDS011;1591;51.486;7.146;2022-10-13T02:04:00;14.23;;;9.30;;
3159;SDS011;1591;51.486;7.146;2022-10-13T02:06:46;18.73;;;9.53;;
3159;SDS011;1591;51.486;7.146;2022-10-13T02:09:22;14.17;;;9.40;;
3159;SDS011;1591;51.486;7.146;2022-10-13T02:12:00;13.80;;;9.60;;
3159;SDS011;1591;51.486;7.146;2022-10-13T02:14:34;15.93;;;8.97;;
3159;SDS011;1591;51.486;7.146;2022-10-13T02:17:07;16.53;;;9.50;;
3159;SDS011;1591;51.486;7.146;2022-10-13T02:19:35;17.20;;;8.93;;
3159;SDS011;1591;51.486;7.146;2022-10-13T02:22:04;14.07;;;8.93;;
3159;SDS011;1591;51.486;7.146;2022-10-13T02:24:33;14.50;;;9.63;;
3159;SDS011;1591;51.486;7.146;2022-10-13T02:27:00;12.37;;;8.70;;
3159;SDS011;1591;51.486;7.146;2022-10-13T02:29:30;14.27;;;8.40;;
3159;SDS011;1591;51.486;7.146;2022-10-13T02:31:57;13.70;;;8.80;;
3159;SDS011;1591;51.486;7.146;2022-10-13T02:34:25;19.83;;;8.70;;
3159;SDS011;1591;51.486;7.146;2022-10-13T02:36:52;12.73;;;9.13;;
3159;SDS011;1591;51.486;7.146;2022-10-13T02:39:19;14.30;;;8.63;;
3159;SDS011;1591;51.486;7.146;2022-10-13T02:41:46;20.70;;;9.73;;
3159;SDS011;1591;51.486;7.146;2022-10-13T02:44:13;14.57;;;9.23;;
3159;SDS011;1591;51.486;7.146;2022-10-13T02:46:40;16.17;;;9.60;;
3159;SDS011;1591;51.486;7.146;2022-10-13T02:49:08;12.47;;;8.30;;
3159;SDS011;1591;51.486;7.146;2022-10-13T02:51:36;16.03;;;8.50;;
3159;SDS011;1591;51.486;7.146;2022-10-13T02:54:03;14.40;;;8.80;;
3159;SDS011;1591;51.486;7.146;2022-10-13T02:56:30;18.13;;;9.50;;
3159;SDS011;1591;51.486;7.146;2022-10-13T02:58:57;13.47;;;8.53;;
3159;SDS011;1591;51.486;7.146;2022-10-13T03:01:24;14.70;;;8.40;;
3159;SDS011;1591;51.486;7.146;2022-10-13T03:03:51;12.27;;;9.30;;
3159;SDS011;1591;51.486;7.146;2022-10-13T03:06:18;13.73;;;8.90;;
3159;SDS011;1591;51.486;7.146;2022-10-13T03:08:46;18.43;;;8.00;;
3159;SDS011;1591;51.486;7.146;2022-10-13T03:11:14;12.67;;;7.77;;
3159;SDS011;1591;51.486;7.146;2022-10-13T03:13:41;11.27;;;7.90;;
3159;SDS011;1591;51.486;7.146;2022-10-13T03:16:08;13.00;;;9.00;;
3159;SDS011;1591;51.486;7.146;2022-10-13T03:18:34;15.17;;;8.47;;
3159;SDS011;1591;51.486;7.146;2022-10-13T03:21:02;17.67;;;8.83;;
3159;SDS011;1591;51.486;7.146;2022-10-13T03:23:31;11.90;;;9.53;;
3159;SDS011;1591;51.486;7.146;2022-10-13T03:26:00;15.47;;;8.73;;
3159;SDS011;1591;51.486;7.146;2022-10-13T03:28:28;18.83;;;10.00;;
3159;SDS011;1591;51.486;7.146;2022-10-13T03:30:58;17.30;;;9.37;;
3159;SDS011;1591;51.486;7.146;2022-10-13T03:33:27;21.20;;;9.40;;
3159;SDS011;1591;51.486;7.146;2022-10-13T03:35:53;14.57;;;9.10;;
3159;SDS011;1591;51.486;7.146;2022-10-13T03:38:24;22.10;;;9.67;;
3159;SDS011;1591;51.486;7.146;2022-10-13T03:40:51;14.67;;;9.17;;
3159;SDS011;1591;51.486;7.146;2022-10-13T03:43:19;26.17;;;10.20;;
3159;SDS011;1591;51.486;7.146;2022-10-13T03:45:53;19.23;;;9.37;;
3159;SDS011;1591;51.486;7.146;2022-10-13T03:48:20;11.40;;;8.23;;
3159;SDS011;1591;51.486;7.146;2022-10-13T03:50:48;22.70;;;9.30;;
3159;SDS011;1591;51.486;7.146;2022-10-13T03:53:16;18.30;;;9.17;;
3159;SDS011;1591;51.486;7.146;2022-10-13T03:55:47;13.73;;;9.30;;
3159;SDS011;1591;51.486;7.146;2022-10-13T03:58:15;15.60;;;9.20;;
3159;SDS011;1591;51.486;7.146;2022-10-13T04:00:43;16.00;;;9.10;;
3159;SDS011;1591;51.486;7.146;2022-10-13T04:03:11;18.17;;;8.87;;
3159;SDS011;1591;51.486;7.146;2022-10-13T04:05:39;10.23;;;8.40;;
3159;SDS011;1591;51.486;7.146;2022-10-13T04:08:06;14.03;;;9.63;;
3159;SDS011;1591;51.486;7.146;2022-10-13T04:10:33;20.13;;;9.27;;
3159;SDS011;1591;51.486;7.146;2022-10-13T04:13:00;15.40;;;8.50;;
3159;SDS011;1591;51.486;7.146;2022-10-13T04:15:27;11.27;;;8.77;;
3159;SDS011;1591;51.486;7.146;2022-10-13T04:17:55;14.60;;;9.17;;
3159;SDS011;1591;51.486;7.146;2022-10-13T04:20:22;16.80;;;9.50;;
3159;SDS011;1591;51.486;7.146;2022-10-13T04:22:49;15.00;;;9.07;;
3159;SDS011;1591;51.486;7.146;2022-10-13T04:25:16;21.90;;;9.27;;
3159;SDS011;1591;51.486;7.146;2022-10-13T04:27:43;15.43;;;9.77;;
3159;SDS011;1591;51.486;7.146;2022-10-13T04:30:12;16.90;;;8.73;;
3159;SDS011;1591;51.486;7.146;2022-10-13T04:32:39;14.23;;;8.77;;
3159;SDS011;1591;51.486;7.146;2022-10-13T04:35:08;15.30;;;9.70;;
3159;SDS011;1591;51.486;7.146;2022-10-13T04:37:35;14.93;;;8.90;;
3159;SDS011;1591;51.486;7.146;2022-10-13T04:40:02;18.73;;;8.90;;
3159;SDS011;1591;51.486;7.146;2022-10-13T04:42:30;15.00;;;9.67;;
3159;SDS011;1591;51.486;7.146;2022-10-13T04:44:56;15.93;;;8.77;;
3159;SDS011;1591;51.486;7.146;2022-10-13T04:47:23;13.80;;;8.87;;
3159;SDS011;1591;51.486;7.146;2022-10-13T04:49:50;11.07;;;8.23;;
3159;SDS011;1591;51.486;7.146;2022-10-13T04:52:18;16.10;;;8.57;;
3159;SDS011;1591;51.486;7.146;2022-10-13T04:54:45;14.43;;;9.30;;
3159;SDS011;1591;51.486;7.146;2022-10-13T04:57:12;13.87;;;8.87;;
3159;SDS011;1591;51.486;7.146;2022-10-13T04:59:39;14.17;;;8.70;;
3159;SDS011;1591;51.486;7.146;2022-10-13T05:02:06;14.47;;;8.80;;
3159;SDS011;1591;51.486;7.146;2022-10-13T05:04:34;10.77;;;7.60;;
3159;SDS011;1591;51.486;7.146;2022-10-13T05:07:01;11.73;;;8.60;;
3159;SDS011;1591;51.486;7.146;2022-10-13T05:09:30;16.70;;;9.00;;
3159;SDS011;1591;51.486;7.146;2022-10-13T05:11:57;16.37;;;9.10;;
3159;SDS011;1591;51.486;7.146;2022-10-13T05:14:24;13.47;;;8.33;;
3159;SDS011;1591;51.486;7.146;2022-10-13T05:16:50;14.50;;;9.10;;
3159;SDS011;1591;51.486;7.146;2022-10-13T05:19:17;13.43;;;8.87;;
3159;SDS011;1591;51.486;7.146;2022-10-13T05:21:45;16.63;;;8.50;;
3159;SDS011;1591;51.486;7.146;2022-10-13T05:24:12;13.57;;;8.90;;
3159;SDS011;1591;51.486;7.146;2022-10-13T05:26:41;10.33;;;8.50;;
3159;SDS011;1591;51.486;7.146;2022-10-13T05:29:08;10.13;;;8.13;;
3159;SDS011;1591;51.486;7.146;2022-10-13T05:31:35;15.40;;;8.17;;
3159;SDS011;1591;51.486;7.146;2022-10-13T05:34:03;16.03;;;9.00;;
3159;SDS011;1591;51.486;7.146;2022-10-13T05:36:31;16.83;;;8.00;;
3159;SDS011;1591;51.486;7.146;2022-10-13T05:39:00;14.30;;;9.50;;
3159;SDS011;1591;51.486;7.146;2022-10-13T05:41:30;15.90;;;8.07;;
3159;SDS011;1591;51.486;7.146;2022-10-13T05:43:59;29.37;;;9.20;;
3159;SDS011;1591;51.486;7.146;2022-10-13T05:46:30;29.13;;;9.20;;
3159;SDS011;1591;51.486;7.146;2022-10-13T05:48:58;22.27;;;8.17;;
3159;SDS011;1591;51.486;7.146;2022-10-13T05:51:26;13.63;;;8.20;;
3159;SDS011;1591;51.486;7.146;2022-10-13T05:53:58;15.00;;;8.93;;
3159;SDS011;1591;51.486;7.146;2022-10-13T05:56:30;11.77;;;7.90;;
3159;SDS011;1591;51.486;7.146;2022-10-13T05:59:08;13.77;;;7.70;;
3159;SDS011;1591;51.486;7.146;2022-10-13T06:01:39;12.73;;;7.77;;
3159;SDS011;1591;51.486;7.146;2022-10-13T06:04:12;19.50;;;8.07;;
3159;SDS011;1591;51.486;7.146;2022-10-13T06:06:45;10.97;;;7.40;;
3159;SDS011;1591;51.486;7.146;2022-10-13T06:09:14;17.80;;;8.17;;
3159;SDS011;1591;51.486;7.146;2022-10-13T06:11:41;16.23;;;7.70;;
3159;SDS011;1591;51.486;7.146;2022-10-13T06:14:11;20.63;;;7.80;;
3159;SDS011;1591;51.486;7.146;2022-10-13T06:16:37;16.13;;;8.73;;
3159;SDS011;1591;51.486;7.146;2022-10-13T06:19:05;17.10;;;7.87;;
3159;SDS011;1591;51.486;7.146;2022-10-13T06:21:32;14.17;;;8.30;;
3159;SDS011;1591;51.486;7.146;2022-10-13T06:24:00;14.23;;;7.50;;
3159;SDS011;1591;51.486;7.146;2022-10-13T06:26:27;15.97;;;7.67;;
3159;SDS011;1591;51.486;7.146;2022-10-13T06:28:55;14.73;;;8.23;;
3159;SDS011;1591;51.486;7.146;2022-10-13T06:31:23;18.73;;;7.63;;
3159;SDS011;1591;51.486;7.146;2022-10-13T06:33:50;18.37;;;7.63;;
3159;SDS011;1591;51.486;7.146;2022-10-13T06:36:17;10.47;;;7.60;;
3159;SDS011;1591;51.486;7.146;2022-10-13T06:38:44;11.33;;;7.70;;
3159;SDS011;1591;51.486;7.146;2022-10-13T06:41:11;14.70;;;7.40;;
3159;SDS011;1591;51.486;7.146;2022-10-13T06:43:39;13.23;;;7.20;;
3159;SDS011;1591;51.486;7.146;2022-10-13T06:46:06;11.17;;;7.87;;
3159;SDS011;1591;51.486;7.146;2022-10-13T06:48:38;12.23;;;7.23;;
3159;SDS011;1591;51.486;7.146;2022-10-13T06:51:06;12.73;;;7.73;;
3159;SDS011;1591;51.486;7.146;2022-10-13T06:53:36;14.53;;;8.03;;
3159;SDS011;1591;51.486;7.146;2022-10-13T06:56:03;22.33;;;7.63;;
3159;SDS011;1591;51.486;7.146;2022-10-13T06:58:35;16.60;;;8.47;;
3159;SDS011;1591;51.486;7.146;2022-10-13T07:01:02;21.00;;;7.70;;
3159;SDS011;1591;51.486;7.146;2022-10-13T07:03:30;17.00;;;7.87;;
3159;SDS011;1591;51.486;7.146;2022-10-13T07:06:00;12.43;;;7.67;;
3159;SDS011;1591;51.486;7.146;2022-10-13T07:08:28;21.37;;;8.40;;
3159;SDS011;1591;51.486;7.146;2022-10-13T07:10:55;11.27;;;7.23;;
3159;SDS011;1591;51.486;7.146;2022-10-13T07:13:23;13.10;;;7.60;;
3159;SDS011;1591;51.486;7.146;2022-10-13T07:15:50;9.87;;;7.40;;
3159;SDS011;1591;51.486;7.146;2022-10-13T07:18:17;17.73;;;8.87;;
3159;SDS011;1591;51.486;7.146;2022-10-13T07:20:44;12.53;;;7.50;;
3159;SDS011;1591;51.486;7.146;2022-10-13T07:23:12;10.70;;;8.17;;
3159;SDS011;1591;51.486;7.146;2022-10-13T07:25:39;14.23;;;7.30;;
3159;SDS011;1591;51.486;7.146;2022-10-13T07:28:06;16.60;;;8.07;;
3159;SDS011;1591;51.486;7.146;2022-10-13T07:30:33;13.47;;;8.07;;
3159;SDS011;1591;51.486;7.146;2022-10-13T07:33:00;13.30;;;8.43;;
3159;SDS011;1591;51.486;7.146;2022-10-13T07:35:27;14.67;;;8.23;;
3159;SDS011;1591;51.486;7.146;2022-10-13T07:37:54;15.37;;;8.40;;
3159;SDS011;1591;51.486;7.146;2022-10-13T07:40:22;13.77;;;8.13;;
3159;SDS011;1591;51.486;7.146;2022-10-13T07:42:50;12.47;;;8.53;;
3159;SDS011;1591;51.486;7.146;2022-10-13T07:45:17;15.60;;;8.60;;
3159;SDS011;1591;51.486;7.146;2022-10-13T07:47:44;14.70;;;9.00;;
3159;SDS011;1591;51.486;7.146;2022-10-13T07:50:13;14.23;;;9.70;;
3159;SDS011;1591;51.486;7.146;2022-10-13T07:52:40;17.00;;;8.70;;
3159;SDS011;1591;51.486;7.146;2022-10-13T07:55:08;12.83;;;8.90;;
3159;SDS011;1591;51.486;7.146;2022-10-13T07:57:39;14.23;;;9.10;;
3159;SDS011;1591;51.486;7.146;2022-10-13T08:00:06;16.90;;;9.00;;
3159;SDS011;1591;51.486;7.146;2022-10-13T08:02:35;13.00;;;8.43;;
3159;SDS011;1591;51.486;7.146;2022-10-13T08:05:04;15.93;;;9.37;;
3159;SDS011;1591;51.486;7.146;2022-10-13T08:07:31;18.13;;;8.10;;
3159;SDS011;1591;51.486;7.146;2022-10-13T08:09:59;12.90;;;8.13;;
3159;SDS011;1591;51.486;7.146;2022-10-13T08:12:26;12.97;;;8.60;;
3159;SDS011;1591;51.486;7.146;2022-10-13T08:14:54;15.67;;;9.00;;
3159;SDS011;1591;51.486;7.146;2022-10-13T08:17:21;16.57;;;8.77;;
3159;SDS011;1591;51.486;7.146;2022-10-13T08:19:49;13.07;;;8.73;;
3159;SDS011;1591;51.486;7.146;2022-10-13T08:22:16;14.23;;;8.90;;
3159;SDS011;1591;51.486;7.146;2022-10-13T08:24:43;17.20;;;8.77;;
3159;SDS011;1591;51.486;7.146;2022-10-13T08:27:13;14.87;;;8.93;;
3159;SDS011;1591;51.486;7.146;2022-10-13T08:29:44;17.90;;;8.90;;
3159;SDS011;1591;51.486;7.146;2022-10-13T08:32:13;30.30;;;9.70;;
3159;SDS011;1591;51.486;7.146;2022-10-13T08:34:40;12.77;;;8.40;;
3159;SDS011;1591;51.486;7.146;2022-10-13T08:37:11;22.17;;;9.47;;
3159;SDS011;1591;51.486;7.146;2022-10-13T08:39:39;19.50;;;8.60;;
3159;SDS011;1591;51.486;7.146;2022-10-13T08:42:10;18.30;;;8.73;;
3159;SDS011;1591;51.486;7.146;2022-10-13T08:44:43;15.57;;;10.00;;
3159;SDS011;1591;51.486;7.146;2022-10-13T08:47:19;15.73;;;9.00;;
3159;SDS011;1591;51.486;7.146;2022-10-13T08:50:01;12.63;;;8.50;;
3159;SDS011;1591;51.486;7.146;2022-10-13T08:52:42;14.60;;;8.73;;
3159;SDS011;1591;51.486;7.146;2022-10-13T08:55:16;14.90;;;8.10;;
3159;SDS011;1591;51.486;7.146;2022-10-13T08:57:53;17.20;;;8.40;;
3159;SDS011;1591;51.486;7.146;2022-10-13T09:00:20;18.53;;;8.70;;
3159;SDS011;1591;51.486;7.146;2022-10-13T09:02:49;18.00;;;8.20;;
3159;SDS011;1591;51.486;7.146;2022-10-13T09:05:18;14.13;;;8.50;;
3159;SDS011;1591;51.486;7.146;2022-10-13T09:07:59;13.90;;;7.90;;
3159;SDS011;1591;51.486;7.146;2022-10-13T09:10:29;18.30;;;7.90;;
3159;SDS011;1591;51.486;7.146;2022-10-13T09:12:56;15.60;;;7.70;;
3159;SDS011;1591;51.486;7.146;2022-10-13T09:15:25;13.50;;;7.50;;
3159;SDS011;1591;51.486;7.146;2022-10-13T09:18:07;16.23;;;6.97;;
3159;SDS011;1591;51.486;7.146;2022-10-13T09:20:36;17.43;;;8.07;;
3159;SDS011;1591;51.486;7.146;2022-10-13T09:23:05;14.13;;;7.20;;
3159;SDS011;1591;51.486;7.146;2022-10-13T09:25:43;13.00;;;7.57;;
3159;SDS011;1591;51.486;7.146;2022-10-13T09:28:14;12.47;;;7.07;;
3159;SDS011;1591;51.486;7.146;2022-10-13T09:30:46;12.30;;;7.90;;
3159;SDS011;1591;51.486;7.146;2022-10-13T09:33:20;11.57;;;7.33;;
3159;SDS011;1591;51.486;7.146;2022-10-13T09:36:04;17.17;;;7.07;;
3159;SDS011;1591;51.486;7.146;2022-10-13T09:38:37;11.83;;;7.27;;
3159;SDS011;1591;51.486;7.146;2022-10-13T09:41:11;9.53;;;6.60;;
3159;SDS011;1591;51.486;7.146;2022-10-13T09:43:56;15.13;;;6.50;;
3159;SDS011;1591;51.486;7.146;2022-10-13T09:46:36;17.13;;;7.17;;
3159;SDS011;1591;51.486;7.146;2022-10-13T09:51:57;11.20;;;6.60;;
3159;SDS011;1591;51.486;7.146;2022-10-13T09:54:26;10.43;;;6.50;;
3159;SDS011;1591;51.486;7.146;2022-10-13T09:57:03;12.40;;;7.60;;
3159;SDS011;1591;51.486;7.146;2022-10-13T09:59:40;12.97;;;7.00;;
3159;SDS011;1591;51.486;7.146;2022-10-13T10:02:15;16.93;;;7.03;;
3159;SDS011;1591;51.486;7.146;2022-10-13T10:04:54;13.03;;;6.90;;
3159;SDS011;1591;51.486;7.146;2022-10-13T10:07:26;13.53;;;7.57;;
3159;SDS011;1591;51.486;7.146;2022-10-13T10:09:58;11.40;;;7.13;;
3159;SDS011;1591;51.486;7.146;2022-10-13T10:12:30;11.10;;;6.50;;
3159;SDS011;1591;51.486;7.146;2022-10-13T10:15:02;15.20;;;6.10;;
3159;SDS011;1591;51.486;7.146;2022-10-13T10:17:47;13.30;;;6.77;;
3159;SDS011;1591;51.486;7.146;2022-10-13T10:20:28;18.60;;;8.07;;
3159;SDS011;1591;51.486;7.146;2022-10-13T10:23:11;13.37;;;6.00;;
3159;SDS011;1591;51.486;7.146;2022-10-13T10:25:45;14.30;;;6.33;;
3159;SDS011;1591;51.486;7.146;2022-10-13T10:28:21;12.40;;;6.50;;
3159;SDS011;1591;51.486;7.146;2022-10-13T10:31:37;13.73;;;7.17;;
3159;SDS011;1591;51.486;7.146;2022-10-13T10:34:26;11.23;;;6.97;;
3159;SDS011;1591;51.486;7.146;2022-10-13T10:37:28;13.23;;;6.80;;
3159;SDS011;1591;51.486;7.146;2022-10-13T10:40:23;13.33;;;6.97;;
3159;SDS011;1591;51.486;7.146;2022-10-13T10:43:18;28.63;;;6.57;;
3159;SDS011;1591;51.486;7.146;2022-10-13T10:46:11;11.40;;;6.57;;
3159;SDS011;1591;51.486;7.146;2022-10-13T10:48:42;13.67;;;6.33;;
3159;SDS011;1591;51.486;7.146;2022-10-13T10:51:12;10.30;;;5.93;;
3159;SDS011;1591;51.486;7.146;2022-10-13T10:53:44;15.93;;;6.07;;
3159;SDS011;1591;51.486;7.146;2022-10-13T10:56:26;9.80;;;5.73;;
3159;SDS011;1591;51.486;7.146;2022-10-13T10:59:01;15.67;;;6.17;;
3159;SDS011;1591;51.486;7.146;2022-10-13T11:01:42;11.27;;;6.47;;
3159;SDS011;1591;51.486;7.146;2022-10-13T11:07:13;11.40;;;6.80;;
3159;SDS011;1591;51.486;7.146;2022-10-13T11:10:24;14.10;;;6.00;;
3159;SDS011;1591;51.486;7.146;2022-10-13T11:13:17;11.93;;;6.40;;
3159;SDS011;1591;51.486;7.146;2022-10-13T11:15:46;7.80;;;5.63;;
3159;SDS011;1591;51.486;7.146;2022-10-13T11:24:52;9.50;;;5.47;;
3159;SDS011;1591;51.486;7.146;2022-10-13T11:45:48;7.63;;;5.10;;
3159;SDS011;1591;51.486;7.146;2022-10-13T11:48:33;7.87;;;5.20;;
3159;SDS011;1591;51.486;7.146;2022-10-13T11:51:36;8.60;;;4.90;;
3159;SDS011;1591;51.486;7.146;2022-10-13T11:54:23;10.57;;;5.47;;
3159;SDS011;1591;51.486;7.146;2022-10-13T11:56:59;12.63;;;5.00;;
3159;SDS011;1591;51.486;7.146;2022-10-13T11:59:29;9.23;;;5.47;;
3159;SDS011;1591;51.486;7.146;2022-10-13T12:02:05;6.43;;;5.50;;
3159;SDS011;1591;51.486;7.146;2022-10-13T12:04:40;10.90;;;5.37;;
3159;SDS011;1591;51.486;7.146;2022-10-13T12:07:10;12.77;;;5.70;;
3159;SDS011;1591;51.486;7.146;2022-10-13T12:09:47;16.80;;;5.67;;
3159;SDS011;1591;51.486;7.146;2022-10-13T12:12:19;7.83;;;5.60;;
3159;SDS011;1591;51.486;7.146;2022-10-13T12:14:48;14.93;;;6.23;;
3159;SDS011;1591;51.486;7.146;2022-10-13T12:17:19;9.27;;;5.70;;
3159;SDS011;1591;51.486;7.146;2022-10-13T12:19:49;7.43;;;5.37;;
3159;SDS011;1591;51.486;7.146;2022-10-13T12:22:20;7.87;;;5.10;;
3159;SDS011;1591;51.486;7.146;2022-10-13T12:24:55;9.00;;;5.43;;
3159;SDS011;1591;51.486;7.146;2022-10-13T12:27:26;9.70;;;6.17;;
3159;SDS011;1591;51.486;7.146;2022-10-13T12:29:56;11.23;;;5.23;;
3159;SDS011;1591;51.486;7.146;2022-10-13T12:32:25;9.77;;;5.60;;
3159;SDS011;1591;51.486;7.146;2022-10-13T12:34:54;14.63;;;5.60;;
3159;SDS011;1591;51.486;7.146;2022-10-13T12:37:25;12.40;;;6.30;;
3159;SDS011;1591;51.486;7.146;2022-10-13T12:39:55;6.87;;;5.87;;
3159;SDS011;1591;51.486;7.146;2022-10-13T12:42:26;15.60;;;6.40;;
3159;SDS011;1591;51.486;7.146;2022-10-13T12:44:56;14.20;;;6.53;;
3159;SDS011;1591;51.486;7.146;2022-10-13T12:47:35;11.50;;;7.00;;
3159;SDS011;1591;51.486;7.146;2022-10-13T12:50:21;13.17;;;7.50;;
3159;SDS011;1591;51.486;7.146;2022-10-13T12:53:15;14.90;;;10.00;;
3159;SDS011;1591;51.486;7.146;2022-10-13T12:55:50;12.27;;;9.00;;
3159;SDS011;1591;51.486;7.146;2022-10-13T12:58:24;13.63;;;7.87;;
3159;SDS011;1591;51.486;7.146;2022-10-13T13:01:02;11.97;;;7.40;;
3159;SDS011;1591;51.486;7.146;2022-10-13T13:03:52;10.00;;;7.00;;
3159;SDS011;1591;51.486;7.146;2022-10-13T13:06:23;14.30;;;8.10;;
3159;SDS011;1591;51.486;7.146;2022-10-13T13:09:07;13.13;;;7.97;;
3159;SDS011;1591;51.486;7.146;2022-10-13T13:12:05;13.07;;;7.87;;
3159;SDS011;1591;51.486;7.146;2022-10-13T13:14:50;10.83;;;6.43;;
3159;SDS011;1591;51.486;7.146;2022-10-13T13:17:23;11.03;;;6.63;;
3159;SDS011;1591;51.486;7.146;2022-10-13T13:19:57;11.60;;;6.50;;
3159;SDS011;1591;51.486;7.146;2022-10-13T13:22:24;10.33;;;6.30;;
3159;SDS011;1591;51.486;7.146;2022-10-13T13:24:52;11.60;;;7.00;;
3159;SDS011;1591;51.486;7.146;2022-10-13T13:27:20;8.90;;;6.40;;
3159;SDS011;1591;51.486;7.146;2022-10-13T13:29:53;12.90;;;7.00;;
3159;SDS011;1591;51.486;7.146;2022-10-13T13:32:20;12.57;;;7.00;;
3159;SDS011;1591;51.486;7.146;2022-10-13T13:34:50;12.70;;;6.70;;
3159;SDS011;1591;51.486;7.146;2022-10-13T13:37:28;10.07;;;6.57;;
3159;SDS011;1591;51.486;7.146;2022-10-13T13:40:00;8.20;;;6.67;;
3159;SDS011;1591;51.486;7.146;2022-10-13T13:42:27;8.00;;;6.17;;
3159;SDS011;1591;51.486;7.146;2022-10-13T13:44:56;13.93;;;6.53;;
3159;SDS011;1591;51.486;7.146;2022-10-13T13:47:23;10.60;;;6.70;;
3159;SDS011;1591;51.486;7.146;2022-10-13T13:49:53;13.03;;;8.20;;
3159;SDS011;1591;51.486;7.146;2022-10-13T13:52:22;14.83;;;7.90;;
3159;SDS011;1591;51.486;7.146;2022-10-13T13:54:50;13.27;;;7.47;;
3159;SDS011;1591;51.486;7.146;2022-10-13T13:57:20;9.77;;;7.60;;
3159;SDS011;1591;51.486;7.146;2022-10-13T13:59:47;10.20;;;6.40;;
3159;SDS011;1591;51.486;7.146;2022-10-13T14:02:16;13.43;;;6.70;;
3159;SDS011;1591;51.486;7.146;2022-10-13T14:04:46;11.70;;;7.63;;
3159;SDS011;1591;51.486;7.146;2022-10-13T14:07:13;9.80;;;7.20;;
3159;SDS011;1591;51.486;7.146;2022-10-13T14:09:43;16.23;;;6.63;;
3159;SDS011;1591;51.486;7.146;2022-10-13T14:12:10;12.77;;;7.20;;
3159;SDS011;1591;51.486;7.146;2022-10-13T14:14:37;8.20;;;6.00;;
3159;SDS011;1591;51.486;7.146;2022-10-13T14:17:04;8.13;;;6.50;;
3159;SDS011;1591;51.486;7.146;2022-10-13T14:19:32;10.00;;;6.57;;
3159;SDS011;1591;51.486;7.146;2022-10-13T14:22:00;7.60;;;6.50;;
3159;SDS011;1591;51.486;7.146;2022-10-13T14:24:27;12.13;;;7.70;;
3159;SDS011;1591;51.486;7.146;2022-10-13T14:26:55;7.80;;;6.03;;
3159;SDS011;1591;51.486;7.146;2022-10-13T14:29:22;11.77;;;5.20;;
3159;SDS011;1591;51.486;7.146;2022-10-13T14:31:50;8.97;;;6.07;;
3159;SDS011;1591;51.486;7.146;2022-10-13T14:34:17;13.77;;;6.57;;
3159;SDS011;1591;51.486;7.146;2022-10-13T14:36:46;12.23;;;6.10;;
3159;SDS011;1591;51.486;7.146;2022-10-13T14:39:14;11.67;;;6.17;;
3159;SDS011;1591;51.486;7.146;2022-10-13T14:41:41;9.00;;;6.20;;
3159;SDS011;1591;51.486;7.146;2022-10-13T14:44:08;15.03;;;6.67;;
3159;SDS011;1591;51.486;7.146;2022-10-13T14:46:38;14.50;;;7.13;;
3159;SDS011;1591;51.486;7.146;2022-10-13T14:49:05;12.00;;;8.00;;
3159;SDS011;1591;51.486;7.146;2022-10-13T14:51:35;13.37;;;7.17;;
3159;SDS011;1591;51.486;7.146;2022-10-13T14:54:04;12.93;;;7.77;;
3159;SDS011;1591;51.486;7.146;2022-10-13T14:56:32;12.73;;;8.07;;
3159;SDS011;1591;51.486;7.146;2022-10-13T14:59:00;16.93;;;8.33;;
3159;SDS011;1591;51.486;7.146;2022-10-13T15:01:29;13.33;;;7.60;;
3159;SDS011;1591;51.486;7.146;2022-10-13T15:03:57;13.87;;;8.40;;
3159;SDS011;1591;51.486;7.146;2022-10-13T15:06:25;11.90;;;8.60;;
3159;SDS011;1591;51.486;7.146;2022-10-13T15:08:52;9.50;;;8.50;;
3159;SDS011;1591;51.486;7.146;2022-10-13T15:11:21;15.57;;;8.33;;
3159;SDS011;1591;51.486;7.146;2022-10-13T15:13:49;14.03;;;9.10;;
3159;SDS011;1591;51.486;7.146;2022-10-13T15:16:17;12.27;;;8.87;;
3159;SDS011;1591;51.486;7.146;2022-10-13T15:18:46;13.90;;;8.23;;
3159;SDS011;1591;51.486;7.146;2022-10-13T15:21:13;13.70;;;9.00;;
3159;SDS011;1591;51.486;7.146;2022-10-13T15:23:41;16.30;;;9.13;;
3159;SDS011;1591;51.486;7.146;2022-10-13T15:26:09;15.70;;;9.57;;
3159;SDS011;1591;51.486;7.146;2022-10-13T15:28:42;14.20;;;8.30;;
3159;SDS011;1591;51.486;7.146;2022-10-13T15:31:10;16.97;;;9.50;;
3159;SDS011;1591;51.486;7.146;2022-10-13T15:33:37;18.80;;;9.87;;
3159;SDS011;1591;51.486;7.146;2022-10-13T15:36:07;15.00;;;9.40;;
3159;SDS011;1591;51.486;7.146;2022-10-13T15:38:34;20.20;;;10.53;;
3159;SDS011;1591;51.486;7.146;2022-10-13T15:41:02;16.30;;;8.97;;
3159;SDS011;1591;51.486;7.146;2022-10-13T15:43:31;12.87;;;9.40;;
3159;SDS011;1591;51.486;7.146;2022-10-13T15:46:01;13.17;;;9.03;;
3159;SDS011;1591;51.486;7.146;2022-10-13T15:48:31;13.47;;;9.87;;
3159;SDS011;1591;51.486;7.146;2022-10-13T15:51:00;16.30;;;9.30;;
3159;SDS011;1591;51.486;7.146;2022-10-13T15:53:28;13.33;;;9.83;;
3159;SDS011;1591;51.486;7.146;2022-10-13T15:55:56;13.67;;;9.57;;
3159;SDS011;1591;51.486;7.146;2022-10-13T15:58:27;19.53;;;10.67;;
3159;SDS011;1591;51.486;7.146;2022-10-13T16:00:54;14.40;;;9.80;;
3159;SDS011;1591;51.486;7.146;2022-10-13T16:03:23;15.40;;;9.90;;